createdAt,value
2023-02-17T00:00:37.951Z,0
2023-02-17T00:01:37.955Z,0
2023-02-17T00:02:37.959Z,0
2023-02-17T00:03:38.031Z,0
2023-02-17T00:04:37.942Z,0
2023-02-17T00:05:37.930Z,0
2023-02-17T00:06:37.941Z,0
2023-02-17T00:07:37.945Z,0
2023-02-17T00:08:37.963Z,0
2023-02-17T00:09:37.947Z,0
2023-02-17T00:10:37.935Z,0
2023-02-17T00:11:37.933Z,0
2023-02-17T00:12:37.942Z,0
2023-02-17T00:13:37.947Z,0
2023-02-17T00:14:37.934Z,0
2023-02-17T00:15:37.978Z,0
2023-02-17T00:16:37.930Z,0
2023-02-17T00:17:37.931Z,0
2023-02-17T00:18:37.956Z,0
2023-02-17T00:19:37.948Z,0
2023-02-17T00:20:37.929Z,0
2023-02-17T00:21:37.936Z,0
2023-02-17T00:22:37.940Z,0
2023-02-17T00:23:37.949Z,0
2023-02-17T00:24:37.949Z,0
2023-02-17T00:25:37.938Z,0
2023-02-17T00:26:37.938Z,0
2023-02-17T00:27:37.935Z,0
2023-02-17T00:28:37.952Z,0
2023-02-17T00:29:37.933Z,0
2023-02-17T00:30:37.938Z,0
2023-02-17T00:31:38.037Z,0
2023-02-17T00:32:37.942Z,0
2023-02-17T00:33:37.960Z,0
2023-02-17T00:34:37.947Z,0
2023-02-17T00:35:37.940Z,0
2023-02-17T00:36:37.942Z,0
2023-02-17T00:37:37.939Z,0
2023-02-17T00:38:37.978Z,0
2023-02-17T00:39:37.958Z,0
2023-02-17T00:40:37.942Z,0
2023-02-17T00:41:37.940Z,0
2023-02-17T00:42:37.936Z,0
2023-02-17T00:43:37.952Z,0
2023-02-17T00:44:37.942Z,0
2023-02-17T00:45:37.937Z,0
2023-02-17T00:46:37.991Z,0
2023-02-17T00:47:37.940Z,0
2023-02-17T00:48:38.044Z,0
2023-02-17T00:49:37.940Z,0
2023-02-17T00:50:37.933Z,0
2023-02-17T00:51:37.942Z,0
2023-02-17T00:52:37.940Z,0
2023-02-17T00:53:37.950Z,0
2023-02-17T00:54:37.964Z,0
2023-02-17T00:55:37.941Z,0
2023-02-17T00:56:37.937Z,0
2023-02-17T00:57:37.941Z,0
2023-02-17T00:58:37.952Z,0
2023-02-17T00:59:37.935Z,0
2023-02-17T01:00:37.940Z,0
2023-02-17T01:01:37.994Z,0
2023-02-17T01:02:37.937Z,0
2023-02-17T01:03:37.957Z,0
2023-02-17T01:04:37.958Z,0
2023-02-17T01:05:38.053Z,0
2023-02-17T01:06:37.939Z,0
2023-02-17T01:07:37.944Z,0
2023-02-17T01:08:37.967Z,0
2023-02-17T01:09:37.953Z,0
2023-02-17T01:10:37.944Z,0
2023-02-17T01:11:37.940Z,0
2023-02-17T01:12:37.956Z,0
2023-02-17T01:13:37.954Z,0
2023-02-17T01:14:37.948Z,0
2023-02-17T01:15:37.936Z,0
2023-02-17T01:16:37.944Z,0
2023-02-17T01:17:37.954Z,0
2023-02-17T01:18:37.954Z,0
2023-02-17T01:19:37.937Z,0
2023-02-17T01:20:37.944Z,0
2023-02-17T01:21:37.940Z,0
2023-02-17T01:22:37.939Z,0
2023-02-17T01:23:37.962Z,0
2023-02-17T01:24:37.956Z,0
2023-02-17T01:25:37.940Z,0
2023-02-17T01:26:37.941Z,0
2023-02-17T01:27:37.945Z,0
2023-02-17T01:28:37.959Z,0
2023-02-17T01:29:37.941Z,0
2023-02-17T01:30:37.961Z,0
2023-02-17T01:31:38.050Z,0
2023-02-17T01:32:37.940Z,0
2023-02-17T01:33:37.955Z,0
2023-02-17T01:34:37.944Z,0
2023-02-17T01:35:37.939Z,0
2023-02-17T01:36:37.950Z,0
2023-02-17T01:37:37.937Z,0
2023-02-17T01:38:37.955Z,0
2023-02-17T01:39:37.957Z,0
2023-02-17T01:40:37.939Z,0
2023-02-17T01:41:37.937Z,0
2023-02-17T01:42:37.938Z,0
2023-02-17T01:43:37.962Z,0
2023-02-17T01:44:37.937Z,0
2023-02-17T01:45:37.939Z,0
2023-02-17T01:46:37.976Z,0
2023-02-17T01:47:37.937Z,0
2023-02-17T01:48:37.949Z,0
2023-02-17T01:49:37.947Z,0
2023-02-17T01:50:37.942Z,0
2023-02-17T01:51:37.930Z,0
2023-02-17T01:52:37.933Z,0
2023-02-17T01:53:37.952Z,0
2023-02-17T01:54:37.959Z,0
2023-02-17T01:55:37.929Z,0
2023-02-17T01:56:37.940Z,0
2023-02-17T01:57:37.935Z,0
2023-02-17T01:58:37.953Z,0
2023-02-17T01:59:37.939Z,0
2023-02-17T02:00:37.945Z,0
2023-02-17T02:01:38.008Z,0
2023-02-17T02:02:38.103Z,0
2023-02-17T02:03:37.953Z,0
2023-02-17T02:04:37.956Z,0
2023-02-17T02:05:37.932Z,0
2023-02-17T02:06:37.937Z,0
2023-02-17T02:07:37.943Z,0
2023-02-17T02:08:37.946Z,0
2023-02-17T02:09:37.960Z,0
2023-02-17T02:10:37.934Z,0
2023-02-17T02:11:37.938Z,0
2023-02-17T02:12:37.947Z,0
2023-02-17T02:13:37.957Z,0
2023-02-17T02:14:37.939Z,0
2023-02-17T02:15:37.939Z,0
2023-02-17T02:16:37.975Z,0
2023-02-17T02:17:37.934Z,0
2023-02-17T02:18:37.947Z,0
2023-02-17T02:19:37.941Z,0
2023-02-17T02:20:37.939Z,0
2023-02-17T02:21:37.942Z,0
2023-02-17T02:22:37.932Z,0
2023-02-17T02:23:37.955Z,0
2023-02-17T02:24:37.968Z,0
2023-02-17T02:25:37.939Z,0
2023-02-17T02:26:37.937Z,0
2023-02-17T02:27:37.948Z,0
2023-02-17T02:28:37.955Z,0
2023-02-17T02:29:37.936Z,0
2023-02-17T02:30:37.954Z,0
2023-02-17T02:31:37.970Z,0
2023-02-17T02:32:37.932Z,0
2023-02-17T02:33:37.984Z,0
2023-02-17T02:34:37.944Z,0
2023-02-17T02:35:37.934Z,0
2023-02-17T02:36:37.945Z,0
2023-02-17T02:37:37.938Z,0
2023-02-17T02:38:37.966Z,0
2023-02-17T02:39:37.953Z,0
2023-02-17T02:40:37.968Z,0
2023-02-17T02:41:37.939Z,0
2023-02-17T02:42:37.934Z,0
2023-02-17T02:43:37.957Z,0
2023-02-17T02:44:37.942Z,0
2023-02-17T02:45:37.993Z,0
2023-02-17T02:46:37.936Z,0
2023-02-17T02:47:37.940Z,0
2023-02-17T02:48:37.961Z,0
2023-02-17T02:49:37.933Z,0
2023-02-17T02:50:37.938Z,0
2023-02-17T02:51:37.934Z,0
2023-02-17T02:52:37.939Z,0
2023-02-17T02:53:37.950Z,0
2023-02-17T02:54:37.958Z,0
2023-02-17T02:55:37.946Z,0
2023-02-17T02:56:37.935Z,0
2023-02-17T02:57:37.946Z,0
2023-02-17T02:58:37.952Z,0
2023-02-17T02:59:37.941Z,0
2023-02-17T03:00:37.939Z,0
2023-02-17T03:01:37.938Z,0
2023-02-17T03:02:37.940Z,0
2023-02-17T03:03:37.963Z,0
2023-02-17T03:04:37.945Z,0
2023-02-17T03:05:37.935Z,0
2023-02-17T03:06:37.933Z,0
2023-02-17T03:07:37.942Z,0
2023-02-17T03:08:37.948Z,0
2023-02-17T03:09:37.959Z,0
2023-02-17T03:10:37.949Z,0
2023-02-17T03:11:37.940Z,0
2023-02-17T03:12:37.943Z,0
2023-02-17T03:13:37.982Z,0
2023-02-17T03:14:37.957Z,0
2023-02-17T03:15:37.936Z,0
2023-02-17T03:16:37.967Z,0
2023-02-17T03:17:37.944Z,0
2023-02-17T03:18:37.963Z,0
2023-02-17T03:19:37.932Z,0
2023-02-17T03:20:37.942Z,0
2023-02-17T03:21:37.950Z,0
2023-02-17T03:22:37.938Z,0
2023-02-17T03:23:37.951Z,0
2023-02-17T03:24:37.955Z,0
2023-02-17T03:25:37.950Z,0
2023-02-17T03:26:37.935Z,0
2023-02-17T03:27:37.943Z,0
2023-02-17T03:28:37.951Z,0
2023-02-17T03:29:37.940Z,0
2023-02-17T03:30:37.939Z,0
2023-02-17T03:31:38.040Z,0
2023-02-17T03:32:37.939Z,0
2023-02-17T03:33:37.962Z,0
2023-02-17T03:34:37.940Z,0
2023-02-17T03:35:37.939Z,0
2023-02-17T03:36:37.930Z,0
2023-02-17T03:37:37.937Z,0
2023-02-17T03:38:37.955Z,0
2023-02-17T03:39:37.949Z,0
2023-02-17T03:40:37.943Z,0
2023-02-17T03:41:37.943Z,0
2023-02-17T03:42:37.940Z,0
2023-02-17T03:43:37.954Z,0
2023-02-17T03:44:37.945Z,0
2023-02-17T03:45:38.033Z,0
2023-02-17T03:46:37.932Z,0
2023-02-17T03:47:37.943Z,0
2023-02-17T03:48:37.954Z,0
2023-02-17T03:49:37.936Z,0
2023-02-17T03:50:37.937Z,0
2023-02-17T03:51:37.936Z,0
2023-02-17T03:52:37.934Z,0
2023-02-17T03:53:37.951Z,0
2023-02-17T03:54:37.961Z,0
2023-02-17T03:55:37.938Z,0
2023-02-17T03:56:37.964Z,0
2023-02-17T03:57:37.933Z,0
2023-02-17T03:58:37.965Z,0
2023-02-17T03:59:37.942Z,0
2023-02-17T04:00:37.939Z,0
2023-02-17T04:01:37.979Z,0
2023-02-17T04:02:37.934Z,0
2023-02-17T04:03:37.956Z,0
2023-02-17T04:04:37.940Z,0
2023-02-17T04:05:37.933Z,0
2023-02-17T04:06:37.933Z,0
2023-02-17T04:07:37.937Z,0
2023-02-17T04:08:37.959Z,0
2023-02-17T04:09:37.949Z,0
2023-02-17T04:10:37.936Z,0
2023-02-17T04:11:37.937Z,0
2023-02-17T04:12:37.935Z,0
2023-02-17T04:13:37.952Z,0
2023-02-17T04:14:37.936Z,0
2023-02-17T04:15:37.985Z,0
2023-02-17T04:16:37.930Z,0
2023-02-17T04:17:37.937Z,0
2023-02-17T04:18:37.948Z,0
2023-02-17T04:19:37.927Z,0
2023-02-17T04:20:37.950Z,0
2023-02-17T04:21:37.935Z,0
2023-02-17T04:22:37.928Z,0
2023-02-17T04:23:37.953Z,0
2023-02-17T04:24:37.975Z,0
2023-02-17T04:25:37.935Z,0
2023-02-17T04:26:37.929Z,0
2023-02-17T04:27:37.933Z,0
2023-02-17T04:28:37.956Z,0
2023-02-17T04:29:37.929Z,0
2023-02-17T04:30:37.933Z,0
2023-02-17T04:31:38.061Z,0
2023-02-17T04:32:37.929Z,0
2023-02-17T04:33:38.025Z,0
2023-02-17T04:34:37.928Z,0
2023-02-17T04:35:37.934Z,0
2023-02-17T04:36:37.933Z,0
2023-02-17T04:37:37.937Z,0
2023-02-17T04:38:37.952Z,0
2023-02-17T04:39:37.945Z,0
2023-02-17T04:40:37.951Z,0
2023-02-17T04:41:37.937Z,0
2023-02-17T04:42:37.933Z,0
2023-02-17T04:43:37.950Z,0
2023-02-17T04:44:37.939Z,0
2023-02-17T04:45:37.925Z,0
2023-02-17T04:46:37.942Z,0
2023-02-17T04:47:37.933Z,0
2023-02-17T04:48:37.949Z,0
2023-02-17T04:49:37.934Z,0
2023-02-17T04:50:37.938Z,0
2023-02-17T04:51:37.929Z,0
2023-02-17T04:52:37.931Z,0
2023-02-17T04:53:37.955Z,0
2023-02-17T04:54:37.956Z,0
2023-02-17T04:55:37.926Z,0
2023-02-17T04:56:37.947Z,0
2023-02-17T04:57:37.934Z,0
2023-02-17T04:58:37.960Z,0
2023-02-17T04:59:37.926Z,0
2023-02-17T05:00:37.933Z,0
2023-02-17T05:01:38.005Z,0
2023-02-17T05:02:37.934Z,0
2023-02-17T05:03:37.947Z,0
2023-02-17T05:04:38.079Z,0
2023-02-17T05:05:37.937Z,0
2023-02-17T05:06:37.948Z,0
2023-02-17T05:07:37.932Z,0
2023-02-17T05:08:37.949Z,0
2023-02-17T05:09:37.950Z,0
2023-02-17T05:10:37.932Z,0
2023-02-17T05:11:37.934Z,0
2023-02-17T05:12:37.939Z,0
2023-02-17T05:13:37.951Z,0
2023-02-17T05:14:37.926Z,0
2023-02-17T05:15:37.991Z,0
2023-02-17T05:16:37.939Z,0
2023-02-17T05:17:37.929Z,0
2023-02-17T05:18:37.943Z,0
2023-02-17T05:19:37.937Z,0
2023-02-17T05:20:37.937Z,0
2023-02-17T05:21:37.930Z,0
2023-02-17T05:22:37.939Z,0
2023-02-17T05:23:37.942Z,0
2023-02-17T05:24:38.948Z,0
2023-02-17T05:25:37.938Z,0
2023-02-17T05:26:37.946Z,0
2023-02-17T05:27:37.925Z,0
2023-02-17T05:28:37.950Z,0
2023-02-17T05:29:37.933Z,0
2023-02-17T05:30:37.945Z,0
2023-02-17T05:31:38.029Z,0
2023-02-17T05:32:37.938Z,0
2023-02-17T05:33:37.958Z,0
2023-02-17T05:34:37.932Z,0
2023-02-17T05:35:37.932Z,0
2023-02-17T05:36:37.930Z,0
2023-02-17T05:37:37.942Z,0
2023-02-17T05:38:37.962Z,0
2023-02-17T05:39:37.943Z,0
2023-02-17T05:40:37.930Z,0
2023-02-17T05:41:37.929Z,0
2023-02-17T05:42:37.932Z,0
2023-02-17T05:43:37.959Z,0
2023-02-17T05:44:37.931Z,0
2023-02-17T05:45:37.930Z,0
2023-02-17T05:46:37.990Z,0
2023-02-17T05:47:37.934Z,0
2023-02-17T05:48:37.948Z,0
2023-02-17T05:49:37.937Z,0
2023-02-17T05:50:37.934Z,0
2023-02-17T05:51:37.935Z,0
2023-02-17T05:52:37.932Z,0
2023-02-17T05:53:37.949Z,0
2023-02-17T05:54:37.957Z,0
2023-02-17T05:55:37.928Z,0
2023-02-17T05:56:37.939Z,0
2023-02-17T05:57:37.939Z,0
2023-02-17T05:58:37.948Z,0
2023-02-17T05:59:37.934Z,0
2023-02-17T06:00:37.930Z,0
2023-02-17T06:01:37.958Z,0
2023-02-17T06:02:37.947Z,0
2023-02-17T06:03:37.953Z,0
2023-02-17T06:04:38.067Z,0
2023-02-17T06:05:37.937Z,0
2023-02-17T06:06:37.951Z,0.01
2023-02-17T06:07:37.938Z,0.01
2023-02-17T06:08:37.952Z,0.01
2023-02-17T06:09:37.962Z,0.01
2023-02-17T06:10:37.938Z,0.01
2023-02-17T06:11:37.945Z,0.01
2023-02-17T06:12:37.946Z,0.01
2023-02-17T06:13:37.957Z,0.01
2023-02-17T06:14:37.962Z,0.01
2023-02-17T06:15:37.949Z,0.02
2023-02-17T06:16:37.938Z,0.02
2023-02-17T06:17:37.937Z,0.02
2023-02-17T06:18:37.954Z,0.03
2023-02-17T06:19:37.948Z,0.03
2023-02-17T06:20:37.939Z,0.04
2023-02-17T06:21:38.062Z,0.04
2023-02-17T06:22:37.935Z,0.04
2023-02-17T06:23:37.956Z,0.05
2023-02-17T06:24:37.979Z,0.05
2023-02-17T06:25:37.937Z,0.06
2023-02-17T06:26:37.934Z,0.06
2023-02-17T06:27:37.944Z,0.06
2023-02-17T06:28:37.965Z,0.06
2023-02-17T06:29:37.938Z,0.06
2023-02-17T06:30:37.945Z,0.06
2023-02-17T06:31:38.079Z,0.06
2023-02-17T06:32:37.938Z,0.05
2023-02-17T06:33:37.965Z,0.05
2023-02-17T06:34:37.949Z,0.06
2023-02-17T06:35:37.937Z,0.06
2023-02-17T06:36:37.942Z,0.07
2023-02-17T06:37:37.939Z,0.08
2023-02-17T06:38:37.952Z,0.09
2023-02-17T06:39:37.949Z,0.09
2023-02-17T06:40:37.932Z,0.1
2023-02-17T06:41:37.934Z,0.1
2023-02-17T06:42:37.933Z,0.1
2023-02-17T06:43:37.944Z,0.1
2023-02-17T06:44:37.932Z,0.1
2023-02-17T06:45:37.969Z,0.1
2023-02-17T06:46:37.940Z,0.11
2023-02-17T06:47:37.926Z,0.11
2023-02-17T06:48:37.947Z,0.12
2023-02-17T06:49:40.623Z,0.14
2023-02-17T06:50:37.929Z,0.15
2023-02-17T06:51:37.939Z,0.16
2023-02-17T06:52:37.933Z,0.17
2023-02-17T06:53:37.947Z,0.17
2023-02-17T06:54:37.956Z,0.18
2023-02-17T06:55:37.931Z,0.18
2023-02-17T06:56:37.927Z,0.18
2023-02-17T06:57:37.945Z,0.18
2023-02-17T06:58:37.953Z,0.18
2023-02-17T06:59:37.939Z,0.17
2023-02-17T07:00:37.929Z,0.17
2023-02-17T07:01:37.957Z,0.18
2023-02-17T07:02:38.006Z,0.18
2023-02-17T07:03:37.946Z,0.19
2023-02-17T07:04:37.943Z,0.2
2023-02-17T07:05:37.929Z,0.21
2023-02-17T07:06:37.936Z,0.23
2023-02-17T07:07:37.941Z,0.24
2023-02-17T07:08:37.962Z,0.23
2023-02-17T07:09:37.956Z,0.22
2023-02-17T07:10:37.960Z,0.22
2023-02-17T07:11:37.930Z,0.21
2023-02-17T07:12:37.934Z,0.19
2023-02-17T07:13:37.961Z,0.18
2023-02-17T07:14:37.940Z,0.18
2023-02-17T07:15:37.949Z,0.18
2023-02-17T07:16:38.003Z,0.2
2023-02-17T07:17:37.959Z,0.21
2023-02-17T07:18:37.982Z,0.23
2023-02-17T07:19:37.946Z,0.24
2023-02-17T07:20:39.240Z,0.25
2023-02-17T07:21:37.937Z,0.26
2023-02-17T07:22:37.946Z,0.26
2023-02-17T07:23:37.953Z,0.25
2023-02-17T07:24:37.960Z,0.23
2023-02-17T07:25:37.945Z,0.22
2023-02-17T07:26:37.947Z,0.19
2023-02-17T07:27:37.942Z,0.16
2023-02-17T07:28:37.961Z,0.15
2023-02-17T07:29:37.956Z,0.12
2023-02-17T07:30:37.932Z,0.12
2023-02-17T07:31:37.966Z,0.11
2023-02-17T07:32:37.958Z,0.11
2023-02-17T07:33:37.958Z,0.12
2023-02-17T07:34:37.939Z,0.12
2023-02-17T07:35:37.943Z,0.12
2023-02-17T07:36:37.938Z,0.12
2023-02-17T07:37:37.933Z,0.12
2023-02-17T07:38:37.957Z,0.12
2023-02-17T07:39:37.955Z,0.12
2023-02-17T07:40:37.933Z,0.12
2023-02-17T07:41:37.934Z,0.13
2023-02-17T07:42:37.933Z,0.13
2023-02-17T07:43:37.942Z,0.14
2023-02-17T07:44:37.939Z,0.17
2023-02-17T07:45:37.985Z,0.2
2023-02-17T07:46:37.931Z,0.2
2023-02-17T07:47:37.928Z,0.2
2023-02-17T07:48:37.956Z,0.24
2023-02-17T07:49:37.940Z,0.26
2023-02-17T07:50:37.930Z,0.27
2023-02-17T07:51:37.942Z,0.27
2023-02-17T07:52:37.957Z,0.26
2023-02-17T07:53:37.971Z,0.27
2023-02-17T07:54:37.947Z,0.26
2023-02-17T07:55:37.938Z,0.24
2023-02-17T07:56:37.932Z,0.23
2023-02-17T07:57:37.942Z,0.24
2023-02-17T07:58:37.942Z,0.26
2023-02-17T07:59:37.934Z,0.28
2023-02-17T08:00:37.936Z,0.32
2023-02-17T08:01:37.932Z,0.34
2023-02-17T08:02:37.934Z,0.34
2023-02-17T08:03:37.946Z,0.32
2023-02-17T08:04:37.927Z,0.34
2023-02-17T08:05:37.930Z,0.36
2023-02-17T08:06:37.930Z,0.37
2023-02-17T08:07:37.933Z,0.36
2023-02-17T08:08:37.957Z,0.36
2023-02-17T08:09:37.948Z,0.36
2023-02-17T08:10:37.933Z,0.36
2023-02-17T08:11:37.926Z,0.34
2023-02-17T08:12:37.940Z,0.35
2023-02-17T08:13:37.954Z,0.35
2023-02-17T08:14:37.926Z,0.34
2023-02-17T08:15:37.937Z,0.36
2023-02-17T08:16:37.982Z,0.36
2023-02-17T08:17:37.933Z,0.33
2023-02-17T08:18:37.952Z,0.34
2023-02-17T08:19:47.020Z,0.32
2023-02-17T08:20:37.931Z,0.36
2023-02-17T08:21:37.937Z,0.4
2023-02-17T08:22:37.957Z,0.4
2023-02-17T08:23:37.950Z,0.35
2023-02-17T08:24:37.973Z,0.36
2023-02-17T08:25:37.949Z,0.34
2023-02-17T08:26:37.936Z,0.34
2023-02-17T08:27:37.929Z,0.36
2023-02-17T08:28:37.972Z,0.39
2023-02-17T08:29:37.944Z,0.4
2023-02-17T08:30:38.033Z,0.38
2023-02-17T08:31:38.162Z,0.37
2023-02-17T08:32:37.955Z,0.33
2023-02-17T08:33:37.953Z,0.32
2023-02-17T08:34:37.934Z,0.31
2023-02-17T08:35:37.959Z,0.28
2023-02-17T08:36:37.982Z,0.29
2023-02-17T08:37:37.947Z,0.29
2023-02-17T08:38:37.967Z,0.28
2023-02-17T08:39:37.949Z,0.28
2023-02-17T08:40:37.932Z,0.28
2023-02-17T08:41:37.945Z,0.3
2023-02-17T08:42:37.944Z,0.31
2023-02-17T08:43:37.949Z,0.31
2023-02-17T08:44:37.958Z,0.31
2023-02-17T08:45:37.932Z,0.3
2023-02-17T08:46:38.044Z,0.34
2023-02-17T08:47:37.933Z,0.4
2023-02-17T08:48:37.959Z,0.44
2023-02-17T08:49:37.940Z,0.4
2023-02-17T08:50:37.944Z,0.4
2023-02-17T08:51:37.925Z,0.35
2023-02-17T08:52:37.958Z,0.37
2023-02-17T08:53:37.950Z,0.39
2023-02-17T08:54:37.970Z,0.42
2023-02-17T08:55:48.648Z,0.45
2023-02-17T08:56:37.943Z,0.42
2023-02-17T08:57:37.997Z,0.39
2023-02-17T08:58:37.944Z,0.36
2023-02-17T08:59:37.933Z,0.34
2023-02-17T09:00:37.984Z,0.38
2023-02-17T09:01:37.999Z,0.36
2023-02-17T09:02:37.973Z,0.35
2023-02-17T09:03:37.952Z,0.32
2023-02-17T09:04:38.052Z,0.34
2023-02-17T09:05:37.935Z,0.34
2023-02-17T09:06:37.937Z,0.3
2023-02-17T09:07:37.972Z,0.28
2023-02-17T09:08:37.959Z,0.3
2023-02-17T09:09:37.953Z,0.29
2023-02-17T09:10:37.939Z,0.31
2023-02-17T09:11:37.943Z,0.32
2023-02-17T09:12:37.940Z,0.32
2023-02-17T09:13:38.014Z,0.31
2023-02-17T09:14:37.958Z,0.31
2023-02-17T09:15:37.951Z,0.3
2023-02-17T09:16:40.348Z,0.33
2023-02-17T09:17:37.941Z,0.35
2023-02-17T09:18:37.974Z,0.33
2023-02-17T09:19:37.942Z,0.31
2023-02-17T09:20:38.014Z,0.33
2023-02-17T09:21:37.940Z,0.36
2023-02-17T09:22:37.952Z,0.35
2023-02-17T09:23:37.946Z,0.4
2023-02-17T09:24:37.949Z,0.47
2023-02-17T09:25:37.940Z,0.44
2023-02-17T09:26:37.933Z,0.44
2023-02-17T09:27:37.933Z,0.44
2023-02-17T09:28:37.951Z,0.48
2023-02-17T09:29:37.938Z,0.5
2023-02-17T09:30:38.033Z,0.45
2023-02-17T09:31:38.056Z,0.49
2023-02-17T09:32:37.946Z,0.5
2023-02-17T09:33:37.959Z,0.52
2023-02-17T09:34:37.995Z,0.48
2023-02-17T09:35:37.937Z,0.5
2023-02-17T09:36:37.959Z,0.49
2023-02-17T09:37:37.937Z,0.48
2023-02-17T09:38:37.960Z,0.52
2023-02-17T09:39:37.954Z,0.52
2023-02-17T09:40:37.982Z,0.52
2023-02-17T09:41:37.963Z,0.48
2023-02-17T09:42:37.998Z,0.45
2023-02-17T09:43:37.956Z,0.44
2023-02-17T09:44:37.995Z,0.42
2023-02-17T09:45:37.970Z,0.44
2023-02-17T09:46:37.982Z,0.39
2023-02-17T09:47:37.936Z,0.38
2023-02-17T09:48:37.950Z,0.37
2023-02-17T09:49:37.968Z,0.34
2023-02-17T09:50:37.948Z,0.39
2023-02-17T09:51:37.932Z,0.37
2023-02-17T09:52:37.957Z,0.35
2023-02-17T09:53:37.956Z,0.33
2023-02-17T09:54:37.956Z,0.34
2023-02-17T09:55:37.973Z,0.41
2023-02-17T09:56:38.032Z,0.46
2023-02-17T09:57:37.939Z,0.46
2023-02-17T09:58:37.964Z,0.42
2023-02-17T09:59:37.961Z,0.38
2023-02-17T10:00:37.935Z,0.36
2023-02-17T10:01:37.937Z,0.38
2023-02-17T10:02:37.933Z,0.4
2023-02-17T10:03:37.967Z,0.44
2023-02-17T10:04:38.062Z,0.46
2023-02-17T10:05:38.008Z,0.49
2023-02-17T10:06:37.934Z,0.5
2023-02-17T10:07:37.945Z,0.47
2023-02-17T10:08:37.987Z,0.47
2023-02-17T10:09:37.980Z,0.47
2023-02-17T10:10:37.952Z,0.47
2023-02-17T10:11:37.942Z,0.49
2023-02-17T10:12:37.947Z,0.52
2023-02-17T10:13:38.027Z,0.53
2023-02-17T10:14:37.938Z,0.55
2023-02-17T10:15:37.964Z,0.56
2023-02-17T10:16:38.115Z,0.56
2023-02-17T10:17:37.932Z,0.58
2023-02-17T10:18:38.056Z,0.63
2023-02-17T10:19:37.934Z,0.59
2023-02-17T10:20:38.044Z,0.56
2023-02-17T10:21:37.935Z,0.58
2023-02-17T10:22:37.994Z,0.56
2023-02-17T10:23:38.028Z,0.52
2023-02-17T10:24:38.022Z,0.55
2023-02-17T10:25:38.025Z,0.59
2023-02-17T10:26:37.928Z,0.65
2023-02-17T10:27:37.962Z,0.72
2023-02-17T10:28:37.957Z,0.82
2023-02-17T10:29:37.949Z,0.9
2023-02-17T10:30:38.075Z,0.96
2023-02-17T10:31:38.048Z,0.86
2023-02-17T10:32:38.099Z,0.83
2023-02-17T10:33:37.959Z,0.92
2023-02-17T10:34:37.992Z,0.98
2023-02-17T10:35:37.925Z,1.02
2023-02-17T10:36:37.943Z,1.1
2023-02-17T10:37:38.793Z,1.2
2023-02-17T10:38:37.960Z,1.14
2023-02-17T10:39:37.947Z,1.14
2023-02-17T10:40:37.981Z,1.11
2023-02-17T10:41:37.925Z,1.17
2023-02-17T10:42:37.939Z,1.2
2023-02-17T10:43:37.946Z,1.25
2023-02-17T10:44:37.975Z,1.31
2023-02-17T10:45:37.932Z,1.27
2023-02-17T10:46:37.965Z,1.16
2023-02-17T10:47:37.928Z,1.22
2023-02-17T10:48:37.945Z,1.19
2023-02-17T10:49:37.936Z,1.15
2023-02-17T10:50:37.953Z,1.1
2023-02-17T10:51:37.926Z,1.05
2023-02-17T10:52:37.940Z,0.97
2023-02-17T10:53:37.950Z,0.93
2023-02-17T10:54:37.947Z,0.89
2023-02-17T10:55:37.941Z,0.85
2023-02-17T10:56:37.930Z,0.83
2023-02-17T10:57:37.931Z,0.84
2023-02-17T10:58:37.947Z,0.84
2023-02-17T10:59:37.947Z,0.88
2023-02-17T11:00:37.978Z,0.91
2023-02-17T11:01:37.942Z,0.93
2023-02-17T11:02:38.008Z,0.92
2023-02-17T11:03:37.960Z,0.89
2023-02-17T11:04:37.929Z,0.88
2023-02-17T11:05:37.943Z,0.91
2023-02-17T11:06:37.927Z,0.95
2023-02-17T11:07:37.931Z,0.98
2023-02-17T11:08:37.947Z,1.02
2023-02-17T11:09:37.951Z,1.03
2023-02-17T11:10:37.930Z,1.04
2023-02-17T11:11:37.947Z,1.06
2023-02-17T11:12:37.927Z,1.1
2023-02-17T11:13:37.946Z,1.19
2023-02-17T11:14:37.932Z,1.28
2023-02-17T11:15:37.948Z,1.35
2023-02-17T11:16:38.011Z,1.41
2023-02-17T11:17:37.945Z,1.38
2023-02-17T11:18:37.948Z,1.31
2023-02-17T11:19:37.932Z,1.24
2023-02-17T11:20:37.949Z,1.18
2023-02-17T11:21:37.933Z,1.16
2023-02-17T11:22:37.930Z,1.18
2023-02-17T11:23:37.957Z,1.17
2023-02-17T11:24:37.956Z,1.15
2023-02-17T11:25:37.941Z,1.14
2023-02-17T11:26:37.942Z,1.14
2023-02-17T11:27:37.958Z,1.13
2023-02-17T11:28:37.952Z,1.13
2023-02-17T11:29:37.938Z,1.13
2023-02-17T11:30:37.934Z,1.14
2023-02-17T11:31:38.062Z,1.16
2023-02-17T11:32:37.957Z,1.18
2023-02-17T11:33:37.947Z,1.17
2023-02-17T11:34:37.938Z,1.13
2023-02-17T11:35:37.933Z,1.07
2023-02-17T11:36:37.985Z,1.03
2023-02-17T11:37:37.933Z,1.03
2023-02-17T11:38:37.961Z,0.93
2023-02-17T11:39:38.073Z,0.96
2023-02-17T11:40:37.941Z,1.03
2023-02-17T11:41:37.938Z,1.09
2023-02-17T11:42:37.946Z,1.12
2023-02-17T11:43:37.953Z,1.15
2023-02-17T11:44:37.933Z,1.18
2023-02-17T11:45:38.025Z,1.2
2023-02-17T11:46:37.939Z,1.22
2023-02-17T11:47:37.940Z,1.21
2023-02-17T11:48:37.975Z,1.2
2023-02-17T11:49:37.940Z,1.2
2023-02-17T11:50:41.744Z,1.21
2023-02-17T11:51:37.946Z,1.21
2023-02-17T11:52:37.940Z,1.23
2023-02-17T11:53:37.951Z,1.29
2023-02-17T11:54:37.949Z,1.31
2023-02-17T11:55:37.939Z,1.3
2023-02-17T11:56:37.935Z,1.34
2023-02-17T11:57:37.981Z,1.34
2023-02-17T11:58:37.953Z,1.44
2023-02-17T11:59:37.953Z,1.65
2023-02-17T12:00:37.931Z,1.58
2023-02-17T12:01:37.936Z,1.59
2023-02-17T12:02:37.939Z,1.62
2023-02-17T12:03:37.959Z,1.59
2023-02-17T12:04:37.978Z,1.51
2023-02-17T12:05:37.937Z,1.45
2023-02-17T12:06:37.952Z,1.3
2023-02-17T12:07:37.934Z,1.28
2023-02-17T12:08:37.944Z,1.29
2023-02-17T12:09:37.965Z,1.19
2023-02-17T12:10:37.927Z,1.12
2023-02-17T12:11:37.927Z,1.1
2023-02-17T12:12:37.934Z,1.08
2023-02-17T12:13:37.949Z,1.07
2023-02-17T12:14:37.930Z,1.11
2023-02-17T12:15:37.929Z,1.23
2023-02-17T12:16:37.942Z,1.31
2023-02-17T12:17:37.938Z,1.32
2023-02-17T12:18:37.948Z,1.19
2023-02-17T12:19:37.928Z,1.09
2023-02-17T12:20:37.937Z,1.09
2023-02-17T12:21:37.929Z,1.01
2023-02-17T12:22:37.926Z,1.03
2023-02-17T12:23:37.950Z,0.99
2023-02-17T12:24:37.953Z,0.9
2023-02-17T12:25:37.927Z,0.85
2023-02-17T12:26:37.931Z,0.86
2023-02-17T12:27:37.938Z,0.89
2023-02-17T12:28:37.950Z,0.86
2023-02-17T12:29:37.931Z,0.85
2023-02-17T12:30:38.078Z,0.79
2023-02-17T12:31:38.028Z,0.75
2023-02-17T12:32:37.942Z,0.76
2023-02-17T12:33:37.952Z,0.78
2023-02-17T12:34:37.939Z,0.79
2023-02-17T12:35:37.942Z,0.8
2023-02-17T12:36:37.931Z,0.79
2023-02-17T12:37:37.927Z,0.79
2023-02-17T12:38:37.955Z,0.73
2023-02-17T12:39:37.953Z,0.8
2023-02-17T12:40:37.950Z,0.88
2023-02-17T12:41:37.949Z,0.91
2023-02-17T12:42:37.943Z,0.99
2023-02-17T12:43:37.943Z,1.07
2023-02-17T12:44:37.928Z,1.22
2023-02-17T12:45:37.943Z,1.2
2023-02-17T12:46:37.943Z,1.05
2023-02-17T12:47:37.930Z,1
2023-02-17T12:48:37.957Z,0.89
2023-02-17T12:49:37.953Z,0.86
2023-02-17T12:50:37.935Z,0.71
2023-02-17T12:51:37.932Z,0.61
2023-02-17T12:52:37.933Z,0.64
2023-02-17T12:53:37.963Z,0.65
2023-02-17T12:54:37.945Z,0.68
2023-02-17T12:55:37.937Z,0.71
2023-02-17T12:56:37.940Z,0.75
2023-02-17T12:57:37.953Z,0.66
2023-02-17T12:58:37.947Z,0.64
2023-02-17T12:59:37.942Z,0.66
2023-02-17T13:00:37.936Z,0.64
2023-02-17T13:01:37.994Z,0.57
2023-02-17T13:02:37.995Z,0.54
2023-02-17T13:03:37.949Z,0.54
2023-02-17T13:04:37.941Z,0.49
2023-02-17T13:05:37.931Z,0.49
2023-02-17T13:06:37.945Z,0.49
2023-02-17T13:07:37.937Z,0.48
2023-02-17T13:08:37.958Z,0.47
2023-02-17T13:09:38.010Z,0.45
2023-02-17T13:10:37.944Z,0.47
2023-02-17T13:11:37.938Z,0.5
2023-02-17T13:12:37.935Z,0.53
2023-02-17T13:13:37.949Z,0.54
2023-02-17T13:14:37.945Z,0.51
2023-02-17T13:15:37.965Z,0.51
2023-02-17T13:16:37.940Z,0.54
2023-02-17T13:17:37.963Z,0.52
2023-02-17T13:18:37.955Z,0.54
2023-02-17T13:19:37.940Z,0.52
2023-02-17T13:20:37.944Z,0.49
2023-02-17T13:21:37.939Z,0.45
2023-02-17T13:22:37.936Z,0.43
2023-02-17T13:23:37.955Z,0.46
2023-02-17T13:24:37.957Z,0.49
2023-02-17T13:25:37.973Z,0.44
2023-02-17T13:26:37.944Z,0.36
2023-02-17T13:27:37.945Z,0.42
2023-02-17T13:28:37.957Z,0.36
2023-02-17T13:29:37.944Z,0.32
2023-02-17T13:30:37.951Z,0.33
2023-02-17T13:31:37.991Z,0.33
2023-02-17T13:32:37.939Z,0.45
2023-02-17T13:33:37.968Z,0.49
2023-02-17T13:34:37.944Z,0.46
2023-02-17T13:35:37.944Z,0.49
2023-02-17T13:36:37.955Z,0.59
2023-02-17T13:37:37.940Z,0.59
2023-02-17T13:38:37.971Z,0.87
2023-02-17T13:39:37.953Z,0.84
2023-02-17T13:40:37.931Z,0.76
2023-02-17T13:41:37.955Z,0.89
2023-02-17T13:42:37.941Z,0.78
2023-02-17T13:43:37.947Z,0.64
2023-02-17T13:44:37.931Z,0.59
2023-02-17T13:45:37.939Z,0.64
2023-02-17T13:46:38.027Z,1.04
2023-02-17T13:47:38.126Z,0.89
2023-02-17T13:48:37.946Z,0.89
2023-02-17T13:49:37.947Z,1.79
2023-02-17T13:50:37.932Z,1.37
2023-02-17T13:51:37.936Z,1.58
2023-02-17T13:52:37.944Z,1.37
2023-02-17T13:53:38.164Z,1.45
2023-02-17T13:54:37.944Z,1.45
2023-02-17T13:55:37.936Z,0.94
2023-02-17T13:56:37.948Z,0.94